createdAt,value
2019-02-25T00:00:28.488Z,18.03
2019-02-25T00:02:55.923Z,17.13
2019-02-25T00:05:23.288Z,18.63
2019-02-25T00:07:50.697Z,18.97
2019-02-25T00:10:18.048Z,19.37
2019-02-25T00:12:45.473Z,18.90
2019-02-25T00:15:12.894Z,16.37
2019-02-25T00:17:40.342Z,18.93
2019-02-25T00:20:09.317Z,19.17
2019-02-25T00:22:36.673Z,16.90
2019-02-25T00:25:04.388Z,15.53
2019-02-25T00:27:31.807Z,16.00
2019-02-25T00:29:59.228Z,16.47
2019-02-25T00:32:26.868Z,17.40
2019-02-25T00:34:54.297Z,15.13
2019-02-25T00:37:21.638Z,14.87
2019-02-25T00:39:49.043Z,15.30
2019-02-25T00:42:16.398Z,14.43
2019-02-25T00:44:43.825Z,13.67
2019-02-25T00:47:11.158Z,18.50
2019-02-25T00:49:38.598Z,18.50
2019-02-25T00:52:05.971Z,16.57
2019-02-25T00:54:33.363Z,17.77
2019-02-25T00:57:00.761Z,17.17
2019-02-25T00:59:29.158Z,18.27
2019-02-25T01:01:56.543Z,17.80
2019-02-25T01:04:23.948Z,15.63
2019-02-25T01:06:51.298Z,18.37
2019-02-25T01:09:18.721Z,17.20
2019-02-25T01:11:46.099Z,17.40
2019-02-25T01:14:13.894Z,17.13
2019-02-25T01:16:41.264Z,17.20
2019-02-25T01:19:08.656Z,18.13
2019-02-25T01:21:36.163Z,14.33
2019-02-25T01:24:03.578Z,20.40
2019-02-25T01:26:30.928Z,17.40
2019-02-25T01:28:58.383Z,17.27
2019-02-25T01:31:25.773Z,15.20
2019-02-25T01:33:53.189Z,20.57
2019-02-25T01:36:20.545Z,15.47
2019-02-25T01:38:47.973Z,17.80
2019-02-25T01:41:15.318Z,14.73
2019-02-25T01:43:43.188Z,16.67
2019-02-25T01:46:10.550Z,16.93
2019-02-25T01:48:37.991Z,14.20
2019-02-25T01:51:05.358Z,20.57
2019-02-25T01:53:32.748Z,15.07
2019-02-25T01:56:00.168Z,14.57
2019-02-25T01:58:27.528Z,14.77
2019-02-25T02:00:54.958Z,16.90
2019-02-25T02:03:22.317Z,14.03
2019-02-25T02:05:50.197Z,15.23
2019-02-25T02:08:17.638Z,14.33
2019-02-25T02:10:45.044Z,13.53
2019-02-25T02:13:14.420Z,13.83
2019-02-25T02:15:41.758Z,12.70
2019-02-25T02:18:09.093Z,18.43
2019-02-25T02:20:36.547Z,17.03
2019-02-25T02:23:04.182Z,15.30
2019-02-25T02:25:31.582Z,19.73
2019-02-25T02:27:59.160Z,20.37
2019-02-25T02:30:26.562Z,17.83
2019-02-25T02:32:54.009Z,14.63
2019-02-25T02:35:21.404Z,16.97
2019-02-25T02:37:48.745Z,14.77
2019-02-25T02:40:16.186Z,16.50
2019-02-25T02:42:46.360Z,14.97
2019-02-25T02:45:23.272Z,19.27
2019-02-25T02:47:56.852Z,15.63
2019-02-25T02:50:25.557Z,12.73
2019-02-25T02:52:53.042Z,14.67
2019-02-25T02:55:20.465Z,17.47
2019-02-25T02:57:47.914Z,17.40
2019-02-25T03:00:16.600Z,15.13
2019-02-25T03:02:43.963Z,15.20
2019-02-25T03:05:12.874Z,15.80
2019-02-25T03:07:40.263Z,18.10
2019-02-25T03:10:09.287Z,18.00
2019-02-25T03:12:36.818Z,13.70
2019-02-25T03:15:05.983Z,14.10
2019-02-25T03:17:33.328Z,13.97
2019-02-25T03:20:00.737Z,14.23
2019-02-25T03:22:28.081Z,16.50
2019-02-25T03:24:55.459Z,15.83
2019-02-25T03:27:22.833Z,15.03
2019-02-25T03:29:50.280Z,16.30
2019-02-25T03:32:17.698Z,14.40
2019-02-25T03:34:45.115Z,15.40
2019-02-25T03:37:12.456Z,16.40
2019-02-25T03:39:39.848Z,18.07
2019-02-25T03:42:07.434Z,17.90
2019-02-25T03:44:35.112Z,15.87
2019-02-25T03:47:02.493Z,15.53
2019-02-25T03:49:29.956Z,15.70
2019-02-25T03:51:57.383Z,17.63
2019-02-25T03:54:25.156Z,15.77
2019-02-25T03:56:52.551Z,16.67
2019-02-25T03:59:19.921Z,16.27
2019-02-25T04:01:47.422Z,14.70
2019-02-25T04:04:14.740Z,18.70
2019-02-25T04:06:42.144Z,16.43
2019-02-25T04:09:09.531Z,16.73
2019-02-25T04:11:36.933Z,14.50
2019-02-25T04:14:04.571Z,12.83
2019-02-25T04:16:31.992Z,13.93
2019-02-25T04:18:59.401Z,14.30
2019-02-25T04:21:26.827Z,14.17
2019-02-25T04:23:54.172Z,16.87
2019-02-25T04:26:21.661Z,17.40
2019-02-25T04:28:49.059Z,14.43
2019-02-25T04:31:16.461Z,16.30
2019-02-25T04:33:43.804Z,15.40
2019-02-25T04:36:11.219Z,12.40
2019-02-25T04:38:38.546Z,16.53
2019-02-25T04:41:05.951Z,13.43
2019-02-25T04:43:33.345Z,14.90
2019-02-25T04:46:00.815Z,15.97
2019-02-25T04:48:28.182Z,13.47
2019-02-25T04:50:55.578Z,15.93
2019-02-25T04:53:23.069Z,15.40
2019-02-25T04:55:50.558Z,14.30
2019-02-25T04:58:17.894Z,12.83
2019-02-25T05:00:45.311Z,14.07
2019-02-25T05:03:12.680Z,16.83
2019-02-25T05:05:40.125Z,14.20
2019-02-25T05:08:07.567Z,12.93
2019-02-25T05:10:34.938Z,14.27
2019-02-25T05:13:03.818Z,16.77
2019-02-25T05:15:31.455Z,14.60
2019-02-25T05:17:58.946Z,13.63
2019-02-25T05:20:26.358Z,14.97
2019-02-25T05:22:53.758Z,13.67
2019-02-25T05:25:21.282Z,16.93
2019-02-25T05:27:48.734Z,14.23
2019-02-25T05:30:16.813Z,15.10
2019-02-25T05:32:44.643Z,18.30
2019-02-25T05:35:12.387Z,16.37
2019-02-25T05:37:40.300Z,14.37
2019-02-25T05:40:10.959Z,16.57
2019-02-25T05:42:38.478Z,17.83
2019-02-25T05:45:06.112Z,15.03
2019-02-25T05:47:33.659Z,16.50
2019-02-25T05:50:01.324Z,14.63
2019-02-25T05:52:28.924Z,14.87
2019-02-25T05:54:56.401Z,16.47
2019-02-25T05:57:23.920Z,19.93
2019-02-25T05:59:51.436Z,14.47
2019-02-25T06:02:18.956Z,13.97
2019-02-25T06:04:46.480Z,16.53
2019-02-25T06:07:14.049Z,16.23
2019-02-25T06:09:41.510Z,13.57
2019-02-25T06:12:09.058Z,16.07
2019-02-25T06:14:36.565Z,13.70
2019-02-25T06:17:04.087Z,14.33
2019-02-25T06:19:31.556Z,15.20
2019-02-25T06:21:59.069Z,14.40
2019-02-25T06:24:26.540Z,22.83
2019-02-25T06:26:54.183Z,17.77
2019-02-25T06:29:21.691Z,17.60
2019-02-25T06:31:49.228Z,15.47
2019-02-25T06:34:16.991Z,14.27
2019-02-25T06:36:44.863Z,21.10
2019-02-25T06:39:12.332Z,16.97
2019-02-25T06:41:39.873Z,18.00
2019-02-25T06:44:07.424Z,18.50
2019-02-25T06:46:34.957Z,17.80
2019-02-25T06:49:02.440Z,17.83
2019-02-25T06:51:29.974Z,17.47
2019-02-25T06:53:57.633Z,13.27
2019-02-25T06:56:25.104Z,17.03
2019-02-25T06:58:52.642Z,13.97
2019-02-25T07:01:20.184Z,15.63
2019-02-25T07:04:07.282Z,14.13
2019-02-25T07:06:48.971Z,18.33
2019-02-25T07:09:26.560Z,18.93
2019-02-25T07:12:10.723Z,18.13
2019-02-25T07:14:47.505Z,16.70
2019-02-25T07:17:33.142Z,12.07
2019-02-25T07:20:16.554Z,15.83
2019-02-25T07:23:21.393Z,18.70
2019-02-25T07:25:59.323Z,23.30
2019-02-25T07:28:38.723Z,17.57
2019-02-25T07:31:37.479Z,18.67
2019-02-25T07:34:24.458Z,19.30
2019-02-25T07:37:01.413Z,13.07
2019-02-25T07:39:44.648Z,14.57
2019-02-25T07:42:37.648Z,11.93
2019-02-25T07:45:25.945Z,12.73
2019-02-25T07:48:07.602Z,10.47
2019-02-25T07:50:52.873Z,12.10
2019-02-25T07:53:42.593Z,12.17
2019-02-25T07:56:29.843Z,13.23
2019-02-25T07:59:12.311Z,14.17
2019-02-25T08:02:11.124Z,12.97
2019-02-25T08:04:58.053Z,12.83
2019-02-25T08:07:50.778Z,12.10
2019-02-25T08:10:30.228Z,11.63
2019-02-25T08:13:20.061Z,11.87
2019-02-25T08:16:15.643Z,11.63
2019-02-25T08:19:17.719Z,12.70
2019-02-25T08:22:23.148Z,11.53
2019-02-25T08:25:07.636Z,12.17
2019-02-25T08:27:41.488Z,12.80
2019-02-25T08:30:18.661Z,13.57
2019-02-25T08:33:01.854Z,12.10
2019-02-25T08:36:15.505Z,12.43
2019-02-25T08:38:58.771Z,13.70
2019-02-25T08:41:48.738Z,15.10
2019-02-25T08:44:44.368Z,13.87
2019-02-25T08:47:31.318Z,14.73
2019-02-25T08:50:04.448Z,13.93
2019-02-25T08:52:31.918Z,13.47
2019-02-25T08:54:59.861Z,16.10
2019-02-25T08:57:27.365Z,17.07
2019-02-25T08:59:54.933Z,15.53
2019-02-25T09:02:22.313Z,12.17
2019-02-25T09:04:49.963Z,13.90
2019-02-25T09:07:17.856Z,14.07
2019-02-25T09:09:45.433Z,14.57
2019-02-25T09:12:12.874Z,14.47
2019-02-25T09:14:40.408Z,12.50
2019-02-25T09:17:07.800Z,13.67
2019-02-25T09:19:35.353Z,14.40
2019-02-25T09:22:03.061Z,13.53
2019-02-25T09:24:30.676Z,12.43
2019-02-25T09:26:58.219Z,12.13
2019-02-25T09:29:26.013Z,12.60
2019-02-25T09:31:53.601Z,14.23
2019-02-25T09:34:21.158Z,13.70
2019-02-25T09:36:48.618Z,13.97
2019-02-25T09:39:16.834Z,12.77
2019-02-25T09:41:44.580Z,13.70
2019-02-25T09:44:11.982Z,13.00
2019-02-25T09:46:39.509Z,14.93
2019-02-25T09:49:06.953Z,15.50
2019-02-25T09:51:34.483Z,12.17
2019-02-25T09:54:01.972Z,13.57
2019-02-25T09:56:29.509Z,11.30
2019-02-25T09:58:57.094Z,10.90
2019-02-25T10:01:24.533Z,12.43
2019-02-25T10:03:52.069Z,9.70
2019-02-25T10:06:20.764Z,11.70
2019-02-25T10:08:48.211Z,11.57
2019-02-25T10:11:15.695Z,14.93
2019-02-25T10:13:43.264Z,13.10
2019-02-25T10:16:10.718Z,11.80
2019-02-25T10:18:38.152Z,12.73
2019-02-25T10:21:05.644Z,10.57
2019-02-25T10:23:33.028Z,12.60
2019-02-25T10:26:00.505Z,12.47
2019-02-25T10:28:28.418Z,12.60
2019-02-25T10:30:55.844Z,13.47
2019-02-25T10:33:23.302Z,11.33
2019-02-25T10:35:51.186Z,9.70
2019-02-25T10:38:19.565Z,9.93
2019-02-25T10:40:49.592Z,12.23
2019-02-25T10:43:17.311Z,11.60
2019-02-25T10:45:45.402Z,11.43
2019-02-25T10:48:13.078Z,10.17
2019-02-25T10:50:40.928Z,12.00
2019-02-25T10:53:10.979Z,8.80
2019-02-25T10:55:44.945Z,9.07
2019-02-25T10:58:12.623Z,8.53
2019-02-25T11:00:43.783Z,9.97
2019-02-25T11:03:13.478Z,11.57
2019-02-25T11:05:42.611Z,9.00
2019-02-25T11:08:13.897Z,8.63
2019-02-25T11:10:49.062Z,11.07
2019-02-25T11:13:17.556Z,9.20
2019-02-25T11:15:46.672Z,9.13
2019-02-25T11:18:14.643Z,9.33
2019-02-25T11:20:42.108Z,7.83
2019-02-25T11:23:10.518Z,10.43
2019-02-25T11:25:39.073Z,9.13
2019-02-25T11:28:07.602Z,9.93
2019-02-25T11:30:35.966Z,7.40
2019-02-25T11:33:03.594Z,7.47
2019-02-25T11:35:34.158Z,9.80
2019-02-25T11:38:01.958Z,8.97
2019-02-25T11:40:31.269Z,7.20
2019-02-25T11:42:58.968Z,9.80
2019-02-25T11:45:26.408Z,6.73
2019-02-25T11:47:54.198Z,6.00
2019-02-25T11:50:21.648Z,6.17
2019-02-25T11:52:49.660Z,6.27
2019-02-25T11:55:17.084Z,7.10
2019-02-25T11:57:44.732Z,12.60
2019-02-25T12:00:15.251Z,6.83
2019-02-25T12:02:43.331Z,6.60
2019-02-25T12:05:11.261Z,5.93
2019-02-25T12:07:38.732Z,6.93
2019-02-25T12:10:06.919Z,6.93
2019-02-25T12:12:34.487Z,6.33
2019-02-25T12:15:01.985Z,5.77
2019-02-25T12:17:29.451Z,7.13
2019-02-25T12:19:56.889Z,5.90
2019-02-25T12:22:24.478Z,6.27
2019-02-25T12:24:51.883Z,5.50
2019-02-25T12:27:19.432Z,6.20
2019-02-25T12:29:47.013Z,4.37
2019-02-25T12:32:14.571Z,7.10
2019-02-25T12:34:42.091Z,5.40
2019-02-25T12:37:11.531Z,5.60
2019-02-25T12:39:39.139Z,5.40
2019-02-25T12:42:06.881Z,5.37
2019-02-25T12:44:34.856Z,5.83
2019-02-25T12:47:02.311Z,5.07
2019-02-25T12:49:29.785Z,4.77
2019-02-25T12:51:57.161Z,4.47
2019-02-25T12:54:24.700Z,7.33
2019-02-25T12:56:52.158Z,6.80
2019-02-25T12:59:19.636Z,5.27
2019-02-25T13:01:47.308Z,6.23
2019-02-25T13:04:14.868Z,5.30
2019-02-25T13:06:42.390Z,5.97
2019-02-25T13:09:14.035Z,4.93
2019-02-25T13:11:41.440Z,5.37
2019-02-25T13:14:08.983Z,2.53
2019-02-25T13:16:36.484Z,5.60
2019-02-25T13:19:03.982Z,2.80
2019-02-25T13:21:31.538Z,4.00
2019-02-25T13:23:59.462Z,1.60
2019-02-25T13:26:29.265Z,2.93
2019-02-25T13:28:58.228Z,4.70
2019-02-25T13:31:25.598Z,3.90
2019-02-25T13:33:53.119Z,7.43
2019-02-25T13:36:20.484Z,4.67
2019-02-25T13:38:48.059Z,5.67
2019-02-25T13:41:15.606Z,4.63
2019-02-25T13:43:43.149Z,5.87
2019-02-25T13:46:10.622Z,5.03
2019-02-25T13:48:38.457Z,8.13
2019-02-25T13:51:05.853Z,5.70
2019-02-25T13:53:33.327Z,6.40
2019-02-25T13:56:01.005Z,7.27
2019-02-25T13:58:28.492Z,6.90
2019-02-25T14:00:55.962Z,5.23
2019-02-25T14:03:23.514Z,7.70
2019-02-25T14:05:51.029Z,6.43
2019-02-25T14:08:18.489Z,6.53
2019-02-25T14:10:46.230Z,6.43
2019-02-25T14:13:13.915Z,6.63
2019-02-25T14:15:41.574Z,6.77
2019-02-25T14:18:09.124Z,11.10
2019-02-25T14:20:40.052Z,7.00
2019-02-25T14:23:12.496Z,7.13
2019-02-25T14:25:41.518Z,5.80
2019-02-25T14:28:22.944Z,6.80
2019-02-25T14:30:51.625Z,9.23
2019-02-25T14:33:19.290Z,7.37
2019-02-25T14:35:56.077Z,8.80
2019-02-25T14:38:29.500Z,9.17
2019-02-25T14:40:57.404Z,8.43
2019-02-25T14:43:27.278Z,8.23
2019-02-25T14:45:56.805Z,8.83
2019-02-25T14:48:25.348Z,9.17
2019-02-25T14:50:53.323Z,9.50
2019-02-25T14:53:20.821Z,8.07
2019-02-25T14:55:50.340Z,7.50
2019-02-25T14:58:17.853Z,7.60
2019-02-25T15:00:45.784Z,10.10
2019-02-25T15:03:13.506Z,7.83
2019-02-25T15:05:41.604Z,9.67
2019-02-25T15:08:09.181Z,9.07
2019-02-25T15:10:38.486Z,7.90
2019-02-25T15:13:08.374Z,10.00
2019-02-25T15:15:37.055Z,8.40
2019-02-25T15:18:05.179Z,7.87
2019-02-25T15:20:32.912Z,7.80
2019-02-25T15:23:00.799Z,8.77
2019-02-25T15:25:31.168Z,7.20
2019-02-25T15:27:58.222Z,9.30
2019-02-25T15:30:30.427Z,8.53
2019-02-25T15:33:00.091Z,8.77
2019-02-25T15:35:31.358Z,8.67
2019-02-25T15:37:57.948Z,9.20
2019-02-25T15:40:27.279Z,6.67
2019-02-25T15:43:02.948Z,6.33
2019-02-25T15:45:32.915Z,5.67
2019-02-25T15:48:01.659Z,5.67
2019-02-25T15:50:29.543Z,6.30
2019-02-25T15:53:00.861Z,5.63
2019-02-25T15:55:29.676Z,5.60
2019-02-25T15:59:08.030Z,6.30
2019-02-25T16:01:35.947Z,7.63
2019-02-25T16:04:15.354Z,10.30
2019-02-25T16:06:43.219Z,6.53
2019-02-25T16:09:11.660Z,9.07
2019-02-25T16:11:41.224Z,7.67
2019-02-25T16:14:10.939Z,7.43
2019-02-25T16:16:40.277Z,8.87
2019-02-25T16:19:08.161Z,7.77
2019-02-25T16:21:43.185Z,9.10
2019-02-25T16:24:12.332Z,7.63
2019-02-25T16:26:53.702Z,13.20
2019-02-25T16:29:35.757Z,16.43
2019-02-25T16:32:35.054Z,12.87
2019-02-25T16:35:04.610Z,14.00
2019-02-25T16:37:33.407Z,15.27
2019-02-25T16:40:06.522Z,8.70
2019-02-25T16:42:34.745Z,10.67
2019-02-25T16:45:06.284Z,9.63
2019-02-25T16:47:35.576Z,11.80
2019-02-25T16:50:04.161Z,12.17
2019-02-25T16:52:32.130Z,11.30
2019-02-25T16:55:00.101Z,12.20
2019-02-25T16:57:28.168Z,11.40
2019-02-25T16:59:57.524Z,13.30
2019-02-25T17:02:30.201Z,19.17
2019-02-25T17:04:57.651Z,17.77
2019-02-25T17:07:25.658Z,17.13
2019-02-25T17:09:55.018Z,16.70
2019-02-25T17:12:25.192Z,16.57
2019-02-25T17:14:53.212Z,16.67
2019-02-25T17:17:24.850Z,9.27
2019-02-25T17:19:54.053Z,10.57
2019-02-25T17:22:22.423Z,10.53
2019-02-25T17:24:52.316Z,8.07
2019-02-25T17:27:19.869Z,10.40
2019-02-25T17:29:49.169Z,11.83
2019-02-25T17:32:19.392Z,7.70
2019-02-25T17:34:47.083Z,10.30
2019-02-25T17:37:16.604Z,12.83
2019-02-25T17:39:44.871Z,7.30
2019-02-25T17:42:13.546Z,10.23
2019-02-25T17:44:41.632Z,11.93
2019-02-25T17:47:11.097Z,10.47
2019-02-25T17:49:40.578Z,17.00
2019-02-25T17:52:09.258Z,12.93
2019-02-25T17:54:37.739Z,13.37
2019-02-25T17:57:07.602Z,16.97
2019-02-25T17:59:36.554Z,19.13
2019-02-25T18:02:06.676Z,16.53
2019-02-25T18:04:34.754Z,15.77
2019-02-25T18:07:03.152Z,16.67
2019-02-25T18:09:31.252Z,19.10
2019-02-25T18:12:00.028Z,17.13
2019-02-25T18:14:28.831Z,18.20
2019-02-25T18:16:57.413Z,19.63
2019-02-25T18:19:27.135Z,18.43
2019-02-25T18:21:58.219Z,20.30
2019-02-25T18:24:26.787Z,20.70
2019-02-25T18:26:54.876Z,19.57
2019-02-25T18:29:23.564Z,19.67
2019-02-25T18:31:52.516Z,16.43
2019-02-25T18:34:20.349Z,14.83
2019-02-25T18:36:48.964Z,13.23
2019-02-25T18:39:18.316Z,14.17
2019-02-25T18:43:16.593Z,15.27
2019-02-25T18:45:44.817Z,15.67
2019-02-25T18:48:12.986Z,16.00
2019-02-25T18:50:40.923Z,15.23
2019-02-25T18:53:09.102Z,17.60
2019-02-25T18:59:21.439Z,17.00
2019-02-25T19:18:10.629Z,10.03
2019-02-25T19:20:41.062Z,13.00
2019-02-25T19:23:10.250Z,10.57
2019-02-25T19:55:20.626Z,15.47
2019-02-25T20:10:02.169Z,18.33
2019-02-25T20:13:07.783Z,20.20
2019-02-25T20:15:37.658Z,21.97
2019-02-25T20:18:14.342Z,19.87
2019-02-25T20:31:38.631Z,17.07
2019-02-25T21:26:33.774Z,15.20
2019-02-25T21:36:01.658Z,19.03
2019-02-25T21:38:30.313Z,14.07
2019-02-25T21:40:58.676Z,16.20
2019-02-25T21:43:28.963Z,17.83
2019-02-25T21:45:56.619Z,17.33
2019-02-25T21:48:27.523Z,19.97
2019-02-25T21:50:58.067Z,17.30
2019-02-25T21:53:24.538Z,15.73
2019-02-25T21:55:53.500Z,16.07
2019-02-25T21:58:23.589Z,16.00
2019-02-25T22:00:50.831Z,17.87
2019-02-25T22:03:19.516Z,15.67
2019-02-25T22:05:49.384Z,18.63
2019-02-25T22:08:20.104Z,17.13
2019-02-25T22:11:13.030Z,15.90
2019-02-25T22:13:38.931Z,17.33
2019-02-25T22:16:08.008Z,18.13
2019-02-25T22:18:36.330Z,17.63
2019-02-25T22:21:07.163Z,17.00
2019-02-25T22:23:35.033Z,17.70
2019-02-25T22:26:02.658Z,17.67
2019-02-25T22:28:30.582Z,17.60
2019-02-25T22:30:59.559Z,18.67
2019-02-25T22:33:28.047Z,17.77
2019-02-25T22:35:56.496Z,20.47
2019-02-25T22:38:23.896Z,18.13
2019-02-25T22:40:53.157Z,18.10
2019-02-25T22:43:20.875Z,18.03
2019-02-25T22:45:48.428Z,17.27
2019-02-25T22:48:16.383Z,20.17
2019-02-25T22:50:45.141Z,17.53
2019-02-25T22:53:12.643Z,18.33
2019-02-25T22:55:42.678Z,19.33
2019-02-25T22:58:10.926Z,19.40
2019-02-25T23:00:43.517Z,18.97
2019-02-25T23:03:15.219Z,20.00
2019-02-25T23:05:43.049Z,20.07
2019-02-25T23:08:12.760Z,20.70
2019-02-25T23:10:42.010Z,18.13
2019-02-25T23:13:09.281Z,18.87
2019-02-25T23:15:36.803Z,18.63
2019-02-25T23:18:05.590Z,20.40
2019-02-25T23:20:34.043Z,18.20
2019-02-25T23:23:06.118Z,19.20
2019-02-25T23:25:31.056Z,17.43
2019-02-25T23:28:00.220Z,17.43
2019-02-25T23:30:27.838Z,19.50
2019-02-25T23:32:55.272Z,18.97
2019-02-25T23:35:23.494Z,19.80
2019-02-25T23:37:54.408Z,19.43
2019-02-25T23:40:21.298Z,19.57
2019-02-25T23:42:49.189Z,19.50
2019-02-25T23:45:18.386Z,19.00
2019-02-25T23:47:46.100Z,19.60
2019-02-25T23:50:13.846Z,22.20
2019-02-25T23:52:41.332Z,17.10
2019-02-25T23:55:12.234Z,18.43
2019-02-25T23:57:38.433Z,22.53
